Airfield :
LOGIN :

Register | Disclaimer

   EN    FR    IT 

 










Legend :    VFR   Marginal VFR   IFR   Intensive IFR   Very Intensive IFR
Visi :
Ceiling :
>= 8 km
>= 3000ft
5 to 8 km
1000 to 3000 ft
1500m to 5 km
500 to 1000 ft
800 to 1500m
200 to 500 ft
< 800m
< 200 ft
Symbols :   Thunderstorms  Fog  Heavy snow  Heavy precipitations  Wind > 20 kt
SIGMETs :     Misc.  Thunderstorms  Icing  Turbulence  Mountain Waves  Volcanic Ashes







- Airport Elevation : 19 ft
- IATA code : LCY
- Download approach charts


EGLC - London City

CURRENT METAR :
  • 211920Z AUTO 30006KT 9999 OVC028 17/11 Q1028

EXPIRED METARs :
  • 211850Z AUTO 28004KT 9999 BKN029 17/11 Q1027
  • 211820Z AUTO VRB03KT 9999 BKN028 17/11 Q1027
  • 211750Z AUTO 29005KT 9999 FEW037 17/11 Q1027
  • 211720Z AUTO 28005KT 9999 NCD 17/11 Q1026
  • 211650Z AUTO 29005KT 9999 NCD 18/11 Q1026

TAF AMD TAF EGLC
Valid from the 21 at 18:00 until the 21 at 21:00 UTC


211837Z 2118/2121 31008KT 9999 SCT030
BECMG 2119/2121 BKN014
PROB30
TEMPO 2120/2121 7000 RA
ATIS : +44 20 7646 0224
No reported NOTAMs for that airfield.



MET'MAP, your aeronautical weather chart ! - Copyright ORBIFLY December 2007 - Disclaimer

ORBIFLY MET'MAP TEAM :

Programming & Development : Alexandra Zaïnal
Concept & Development : Baudouin d'Aumeries
Co-Development & Prog : Marc-Olivier Méhu
Technical & hardware support : Manuel Goepfert

Contact : metmap@orbifly.com




SOURCES & CREDITS :

   NOAA